createdAt,value
2023-03-27T00:01:14.928Z,6.10
2023-03-27T00:03:42.938Z,6.00
2023-03-27T00:06:12.075Z,5.57
2023-03-27T00:08:39.587Z,6.80
2023-03-27T00:11:08.300Z,5.70
2023-03-27T00:13:48.986Z,5.85
2023-03-27T00:16:17.431Z,6.05
2023-03-27T00:18:45.843Z,5.35
2023-03-27T00:21:13.292Z,5.97
2023-03-27T00:23:40.704Z,5.47
2023-03-27T00:26:07.927Z,5.18
2023-03-27T00:28:36.892Z,5.45
2023-03-27T00:31:04.466Z,5.15
2023-03-27T00:33:31.732Z,6.13
2023-03-27T00:35:59.026Z,5.05
2023-03-27T00:38:26.297Z,5.22
2023-03-27T00:40:55.537Z,6.03
2023-03-27T00:43:27.499Z,5.85
2023-03-27T00:46:18.054Z,4.80
2023-03-27T00:48:48.230Z,5.72
2023-03-27T00:51:15.936Z,5.65
2023-03-27T00:53:43.892Z,5.88
2023-03-27T00:56:11.622Z,5.05
2023-03-27T00:59:00.570Z,5.20
2023-03-27T01:01:28.675Z,4.93
2023-03-27T01:03:56.751Z,4.90
2023-03-27T01:06:23.911Z,4.80
2023-03-27T01:08:51.107Z,5.57
2023-03-27T01:11:21.827Z,5.18
2023-03-27T01:13:51.845Z,4.75
2023-03-27T01:16:24.274Z,4.70
2023-03-27T01:18:53.365Z,4.60
2023-03-27T01:21:23.436Z,4.53
2023-03-27T01:23:59.725Z,4.57
2023-03-27T01:26:37.464Z,4.40
2023-03-27T01:29:25.190Z,4.50
2023-03-27T01:32:15.935Z,4.70
2023-03-27T01:35:02.316Z,4.30
2023-03-27T01:37:54.449Z,4.68
2023-03-27T01:40:31.551Z,4.38
2023-03-27T01:42:58.709Z,4.32
2023-03-27T01:45:40.530Z,4.25
2023-03-27T01:48:17.008Z,4.35
2023-03-27T01:50:46.838Z,4.40
2023-03-27T01:53:14.017Z,4.13
2023-03-27T01:55:43.650Z,4.07
2023-03-27T01:58:14.105Z,4.60
2023-03-27T02:00:51.996Z,4.53
2023-03-27T02:03:35.421Z,5.20
2023-03-27T02:06:07.672Z,4.40
2023-03-27T02:08:38.022Z,4.80
2023-03-27T02:11:05.275Z,4.30
2023-03-27T02:13:35.939Z,4.22
2023-03-27T02:16:04.018Z,4.40
2023-03-27T02:18:35.990Z,4.00
2023-03-27T02:21:03.997Z,3.80
2023-03-27T02:23:31.226Z,4.35
2023-03-27T02:25:58.645Z,3.70
2023-03-27T02:28:55.596Z,3.88
2023-03-27T02:31:41.585Z,3.45
2023-03-27T02:34:27.466Z,4.10
2023-03-27T02:37:17.541Z,3.67
2023-03-27T02:39:50.900Z,3.67
2023-03-27T02:42:24.043Z,3.95
2023-03-27T02:44:57.540Z,3.90
2023-03-27T02:47:37.771Z,4.05
2023-03-27T02:50:15.601Z,3.55
2023-03-27T02:52:45.060Z,3.92
2023-03-27T02:55:16.816Z,3.38
2023-03-27T02:57:52.020Z,3.83
2023-03-27T03:00:23.843Z,3.53
2023-03-27T03:02:53.300Z,3.45
2023-03-27T03:05:22.384Z,3.70
2023-03-27T03:07:50.016Z,3.50
2023-03-27T03:10:17.642Z,3.22
2023-03-27T03:12:44.819Z,3.50
2023-03-27T03:15:12.203Z,3.40
2023-03-27T03:17:39.734Z,3.30
2023-03-27T03:20:08.305Z,3.33
2023-03-27T03:22:36.348Z,3.50
2023-03-27T03:25:04.019Z,3.33
2023-03-27T03:27:31.181Z,3.22
2023-03-27T03:29:58.504Z,4.03
2023-03-27T03:32:26.434Z,2.90
2023-03-27T03:34:54.099Z,3.10
2023-03-27T03:37:21.356Z,3.03
2023-03-27T03:39:48.602Z,3.05
2023-03-27T03:42:22.673Z,3.17
2023-03-27T03:44:50.877Z,2.97
2023-03-27T03:47:18.168Z,3.00
2023-03-27T03:49:45.396Z,3.05
2023-03-27T03:52:12.682Z,3.25
2023-03-27T03:54:40.449Z,2.90
2023-03-27T03:57:08.870Z,3.60
2023-03-27T03:59:36.324Z,2.97
2023-03-27T04:02:03.660Z,2.92
2023-03-27T04:04:32.115Z,2.95
2023-03-27T04:06:59.907Z,3.00
2023-03-27T04:09:27.540Z,2.92
2023-03-27T04:11:54.743Z,2.95
2023-03-27T04:14:21.943Z,3.28
2023-03-27T04:16:49.090Z,2.78
2023-03-27T04:19:18.278Z,3.20
2023-03-27T04:21:47.226Z,3.17
2023-03-27T04:24:14.476Z,3.00
2023-03-27T04:26:43.413Z,3.05
2023-03-27T04:29:10.812Z,3.08
2023-03-27T04:31:39.233Z,3.00
2023-03-27T04:34:08.382Z,2.88
2023-03-27T04:36:35.648Z,2.97
2023-03-27T04:39:03.475Z,3.15
2023-03-27T04:41:30.604Z,3.00
2023-03-27T04:43:57.829Z,3.15
2023-03-27T04:46:25.137Z,3.10
2023-03-27T04:48:52.455Z,3.03
2023-03-27T04:51:20.062Z,2.70
2023-03-27T04:53:47.205Z,2.50
2023-03-27T04:56:14.877Z,2.65
2023-03-27T04:58:46.618Z,2.30
2023-03-27T05:01:17.392Z,2.33
2023-03-27T05:03:45.956Z,2.80
2023-03-27T05:06:13.718Z,2.85
2023-03-27T05:08:41.338Z,2.70
2023-03-27T05:11:08.738Z,2.63
2023-03-27T05:13:36.300Z,2.83
2023-03-27T05:16:03.538Z,3.05
2023-03-27T05:18:30.841Z,2.97
2023-03-27T05:20:59.246Z,2.67
2023-03-27T05:23:26.953Z,3.30
2023-03-27T05:26:00.183Z,2.78
2023-03-27T05:28:28.010Z,3.17
2023-03-27T05:30:55.508Z,2.90
2023-03-27T05:33:23.080Z,3.00
2023-03-27T05:35:52.573Z,3.13
2023-03-27T05:38:20.582Z,2.90
2023-03-27T05:40:47.745Z,3.22
2023-03-27T05:43:15.038Z,2.53
2023-03-27T05:45:42.205Z,3.50
2023-03-27T05:48:10.217Z,3.40
2023-03-27T05:50:37.549Z,3.50
2023-03-27T05:53:06.616Z,3.13
2023-03-27T05:55:33.839Z,3.08
2023-03-27T05:58:01.044Z,3.25
2023-03-27T06:00:31.612Z,3.42
2023-03-27T06:02:59.561Z,3.63
2023-03-27T06:05:29.188Z,2.88
2023-03-27T06:07:59.756Z,3.30
2023-03-27T06:10:28.284Z,2.83
2023-03-27T06:13:00.405Z,2.90
2023-03-27T06:15:27.790Z,3.60
2023-03-27T06:17:55.348Z,3.78
2023-03-27T06:20:22.799Z,3.10
2023-03-27T06:22:50.838Z,2.90
2023-03-27T06:25:18.773Z,3.25
2023-03-27T06:27:46.538Z,2.80
2023-03-27T06:30:14.749Z,3.58
2023-03-27T06:32:58.525Z,2.97
2023-03-27T06:35:27.030Z,3.53
2023-03-27T06:37:55.482Z,3.22
2023-03-27T06:40:24.327Z,3.40
2023-03-27T06:42:51.557Z,3.38
2023-03-27T06:45:18.850Z,3.13
2023-03-27T06:47:55.273Z,3.60
2023-03-27T06:50:25.201Z,2.95
2023-03-27T06:52:52.390Z,2.78
2023-03-27T06:55:20.404Z,3.08
2023-03-27T06:57:48.927Z,2.60
2023-03-27T07:00:19.910Z,3.20
2023-03-27T07:02:47.638Z,2.60
2023-03-27T07:05:15.535Z,2.60
2023-03-27T07:07:43.568Z,2.50
2023-03-27T07:10:11.551Z,2.75
2023-03-27T07:12:38.767Z,2.75
2023-03-27T07:15:06.333Z,2.72
2023-03-27T07:17:47.529Z,3.28
2023-03-27T07:20:15.740Z,2.47
2023-03-27T07:22:43.196Z,2.50
2023-03-27T07:25:12.155Z,2.40
2023-03-27T07:27:39.632Z,2.50
2023-03-27T07:30:08.161Z,3.05
2023-03-27T07:32:37.939Z,2.58
2023-03-27T07:35:05.917Z,2.30
2023-03-27T07:37:33.720Z,2.38
2023-03-27T07:40:01.023Z,2.50
2023-03-27T07:42:28.242Z,2.95
2023-03-27T07:44:55.544Z,2.60
2023-03-27T07:47:22.759Z,2.83
2023-03-27T07:49:49.992Z,2.40
2023-03-27T07:52:17.657Z,2.70
2023-03-27T07:54:44.903Z,2.40
2023-03-27T07:57:13.770Z,2.78
2023-03-27T07:59:41.315Z,2.38
2023-03-27T08:02:08.594Z,2.05
2023-03-27T08:04:36.897Z,2.53
2023-03-27T08:07:05.201Z,2.55
2023-03-27T08:09:32.419Z,2.40
2023-03-27T08:11:59.608Z,2.40
2023-03-27T08:14:26.932Z,2.20
2023-03-27T08:16:59.726Z,2.45
2023-03-27T08:19:37.199Z,2.45
2023-03-27T08:22:04.392Z,2.30
2023-03-27T08:24:31.545Z,2.58
2023-03-27T08:26:58.794Z,2.10
2023-03-27T08:29:26.065Z,2.50
2023-03-27T08:31:53.282Z,2.85
2023-03-27T08:34:20.659Z,2.45
2023-03-27T08:36:47.949Z,2.17
2023-03-27T08:39:15.215Z,2.60
2023-03-27T08:41:49.162Z,1.92
2023-03-27T08:44:18.576Z,2.50
2023-03-27T08:46:46.773Z,2.95
2023-03-27T08:49:21.204Z,2.42
2023-03-27T08:51:52.608Z,2.60
2023-03-27T08:54:21.564Z,2.58
2023-03-27T08:56:49.419Z,2.65
2023-03-27T08:59:18.989Z,2.47
2023-03-27T09:01:50.990Z,3.35
2023-03-27T09:04:21.000Z,2.25
2023-03-27T09:07:23.445Z,3.10
2023-03-27T09:09:52.407Z,7.85
2023-03-27T09:12:38.632Z,9.07
2023-03-27T09:17:56.154Z,16.20
2023-03-27T09:20:29.161Z,14.68
2023-03-27T09:23:04.303Z,12.85
2023-03-27T09:25:50.608Z,14.40
2023-03-27T09:28:23.612Z,13.73
2023-03-27T09:30:51.031Z,12.93
2023-03-27T09:33:19.796Z,12.40
2023-03-27T09:35:47.214Z,13.70
2023-03-27T09:38:20.230Z,13.43
2023-03-27T09:40:50.353Z,13.38
2023-03-27T09:43:29.518Z,13.38
2023-03-27T09:45:57.101Z,14.23
2023-03-27T09:48:27.407Z,17.48
2023-03-27T09:50:54.750Z,14.60
2023-03-27T09:53:23.472Z,13.68
2023-03-27T09:55:56.362Z,12.57
2023-03-27T09:58:23.539Z,12.18
2023-03-27T10:01:07.168Z,11.57
2023-03-27T10:03:39.163Z,11.10
2023-03-27T10:06:10.601Z,10.90
2023-03-27T10:08:44.195Z,11.57
2023-03-27T10:11:16.547Z,10.90
2023-03-27T10:13:48.229Z,10.77
2023-03-27T10:16:19.585Z,10.00
2023-03-27T10:18:48.479Z,9.45
2023-03-27T10:21:34.312Z,9.45
2023-03-27T10:24:05.696Z,10.65
2023-03-27T10:26:34.091Z,8.38
2023-03-27T10:29:02.473Z,7.45
2023-03-27T10:31:33.833Z,7.03
2023-03-27T10:34:02.130Z,5.35
2023-03-27T10:36:33.599Z,4.47
2023-03-27T10:39:03.725Z,4.03
2023-03-27T10:41:32.206Z,3.38
2023-03-27T10:43:59.588Z,3.78
2023-03-27T10:46:28.066Z,2.90
2023-03-27T10:49:02.688Z,2.95
2023-03-27T10:51:48.809Z,2.67
2023-03-27T10:56:51.668Z,2.83
2023-03-27T10:59:34.551Z,2.80
2023-03-27T11:02:19.961Z,3.20
2023-03-27T11:05:00.367Z,2.60
2023-03-27T11:07:38.670Z,2.67
2023-03-27T11:10:06.012Z,3.05
2023-03-27T11:12:34.529Z,3.00
2023-03-27T11:15:16.361Z,3.00
2023-03-27T11:18:03.796Z,2.60
2023-03-27T11:20:51.742Z,2.83
2023-03-27T11:23:22.753Z,3.00
2023-03-27T11:25:53.850Z,3.35
2023-03-27T11:28:43.620Z,3.25
2023-03-27T11:31:17.182Z,3.25
2023-03-27T11:33:53.268Z,3.25
2023-03-27T11:36:20.430Z,3.33
2023-03-27T11:38:51.885Z,3.40
2023-03-27T11:41:19.657Z,3.38
2023-03-27T11:43:47.194Z,3.50
2023-03-27T11:46:33.966Z,3.67
2023-03-27T11:49:04.172Z,3.50
2023-03-27T11:51:50.223Z,3.92
2023-03-27T11:54:24.207Z,3.40
2023-03-27T11:56:55.676Z,3.03
2023-03-27T11:59:41.708Z,3.38
2023-03-27T12:02:17.784Z,3.58
2023-03-27T12:04:53.084Z,3.25
2023-03-27T12:07:33.815Z,3.25
2023-03-27T12:10:16.456Z,3.00
2023-03-27T12:12:46.381Z,3.38
2023-03-27T12:15:32.660Z,3.28
2023-03-27T12:18:18.634Z,3.35
2023-03-27T12:21:04.643Z,3.47
2023-03-27T12:23:36.893Z,3.60
2023-03-27T12:26:04.076Z,3.85
2023-03-27T12:28:41.280Z,4.55
2023-03-27T12:31:09.565Z,4.15
2023-03-27T12:33:48.158Z,5.53
2023-03-27T12:36:24.417Z,4.85
2023-03-27T12:38:53.017Z,4.05
2023-03-27T12:41:30.648Z,4.50
2023-03-27T12:43:59.058Z,5.25
2023-03-27T12:46:26.678Z,5.30
2023-03-27T12:48:58.597Z,4.72
2023-03-27T12:51:48.348Z,4.90
2023-03-27T12:54:15.546Z,4.80
2023-03-27T12:56:42.977Z,4.70
2023-03-27T12:59:14.842Z,5.30
2023-03-27T13:01:52.096Z,4.97
2023-03-27T13:04:29.348Z,4.43
2023-03-27T13:07:02.921Z,5.45
2023-03-27T13:09:51.056Z,5.55
2023-03-27T13:12:38.484Z,5.43
2023-03-27T13:15:23.959Z,5.72
2023-03-27T13:17:51.201Z,5.03
2023-03-27T13:20:20.044Z,4.72
2023-03-27T13:23:10.387Z,5.78
2023-03-27T13:25:49.867Z,5.25
2023-03-27T13:28:27.309Z,5.40
2023-03-27T13:30:56.305Z,5.85
2023-03-27T13:33:24.128Z,5.45
2023-03-27T13:36:10.012Z,6.22
2023-03-27T13:38:44.308Z,5.40
2023-03-27T13:41:30.119Z,5.90
2023-03-27T13:43:58.912Z,5.85
2023-03-27T13:46:29.255Z,6.13
2023-03-27T13:49:03.428Z,5.80
2023-03-27T13:51:52.512Z,6.07
2023-03-27T13:54:42.566Z,6.63
2023-03-27T13:57:21.913Z,6.07
2023-03-27T13:59:49.064Z,6.65
2023-03-27T14:02:17.010Z,6.03
2023-03-27T14:04:47.500Z,7.22
2023-03-27T14:07:46.084Z,6.15
2023-03-27T14:10:25.704Z,6.20
2023-03-27T14:12:52.897Z,5.95
2023-03-27T14:15:33.560Z,5.88
2023-03-27T14:18:19.497Z,5.25
2023-03-27T14:20:49.091Z,5.72
2023-03-27T14:23:19.207Z,5.82
2023-03-27T14:25:50.183Z,5.03
2023-03-27T14:28:35.100Z,5.88
2023-03-27T14:31:06.345Z,5.55
2023-03-27T14:33:34.573Z,6.05
2023-03-27T14:36:06.185Z,6.15
2023-03-27T14:38:36.040Z,5.35
2023-03-27T14:41:07.830Z,5.75
2023-03-27T14:43:35.173Z,4.93
2023-03-27T14:46:04.298Z,5.68
2023-03-27T14:48:33.104Z,5.88
2023-03-27T14:51:01.917Z,4.63
2023-03-27T14:53:36.568Z,6.10
2023-03-27T14:56:11.632Z,5.15
2023-03-27T14:58:42.475Z,5.50
2023-03-27T15:01:11.185Z,4.82
2023-03-27T15:03:39.327Z,5.65
2023-03-27T15:06:13.649Z,5.55
2023-03-27T15:08:46.642Z,5.45
2023-03-27T15:11:20.156Z,4.70
2023-03-27T15:13:48.251Z,5.10
2023-03-27T15:16:20.964Z,4.32
2023-03-27T15:19:04.943Z,5.32
2023-03-27T15:21:42.859Z,5.53
2023-03-27T15:24:13.522Z,6.00
2023-03-27T15:26:41.360Z,5.20
2023-03-27T15:29:08.937Z,5.18
2023-03-27T15:31:37.502Z,5.03
2023-03-27T15:34:08.153Z,5.20
2023-03-27T15:36:37.666Z,4.97
2023-03-27T15:39:06.798Z,5.88
2023-03-27T15:41:34.928Z,4.38
2023-03-27T15:44:06.406Z,5.13
2023-03-27T15:46:57.266Z,5.45
2023-03-27T15:49:26.234Z,5.18
2023-03-27T15:51:53.759Z,69.22
2023-03-27T15:54:23.972Z,126.70
2023-03-27T15:56:51.431Z,102.70
2023-03-27T15:59:18.957Z,98.07
2023-03-27T16:01:52.210Z,89.47
2023-03-27T16:04:27.981Z,103.07
2023-03-27T16:09:49.415Z,107.82
2023-03-27T16:12:18.333Z,107.40
2023-03-27T16:14:48.743Z,104.30
2023-03-27T16:17:19.050Z,99.72
2023-03-27T16:19:48.988Z,99.90
2023-03-27T16:22:27.227Z,97.90
2023-03-27T16:24:55.052Z,94.00
2023-03-27T16:27:23.956Z,89.47
2023-03-27T16:29:51.666Z,87.68
2023-03-27T16:32:20.491Z,82.68
2023-03-27T16:34:48.045Z,82.35
2023-03-27T16:37:16.073Z,87.75
2023-03-27T16:39:43.560Z,82.95
2023-03-27T16:42:16.031Z,80.18
2023-03-27T16:44:43.612Z,81.95
2023-03-27T16:47:11.255Z,75.30
2023-03-27T16:49:38.731Z,72.15
2023-03-27T16:52:06.246Z,66.80
2023-03-27T16:54:33.454Z,63.33
2023-03-27T16:57:01.114Z,67.18
2023-03-27T16:59:28.439Z,61.22
2023-03-27T17:01:56.600Z,61.10
2023-03-27T17:04:23.960Z,54.90
2023-03-27T17:06:51.297Z,55.35
2023-03-27T17:09:18.728Z,53.67
2023-03-27T17:11:46.376Z,49.45
2023-03-27T17:14:13.645Z,46.28
2023-03-27T17:16:41.299Z,43.35
2023-03-27T17:19:09.335Z,46.15
2023-03-27T17:21:36.516Z,42.15
2023-03-27T17:24:03.756Z,39.20
2023-03-27T17:26:32.821Z,37.05
2023-03-27T17:29:00.119Z,36.55
2023-03-27T17:31:29.476Z,36.10
2023-03-27T17:33:57.866Z,30.80
2023-03-27T17:36:39.814Z,30.15
2023-03-27T17:39:09.638Z,31.17
2023-03-27T17:41:36.835Z,27.27
2023-03-27T17:44:05.646Z,26.55
2023-03-27T17:46:34.743Z,24.20
2023-03-27T17:49:01.992Z,24.30
2023-03-27T17:51:29.145Z,20.33
2023-03-27T17:53:56.350Z,21.52
2023-03-27T17:56:23.838Z,19.55
2023-03-27T17:58:51.097Z,17.42
2023-03-27T18:01:19.962Z,15.95
2023-03-27T18:03:47.697Z,16.23
2023-03-27T18:06:17.443Z,15.63
2023-03-27T18:08:45.509Z,14.90
2023-03-27T18:11:13.599Z,14.85
2023-03-27T18:13:41.515Z,13.20
2023-03-27T18:16:10.719Z,12.13
2023-03-27T18:18:39.401Z,40.30
2023-03-27T18:21:07.141Z,22.92
2023-03-27T18:23:35.467Z,22.15
2023-03-27T18:26:06.343Z,24.38
2023-03-27T18:28:34.221Z,23.85
2023-03-27T18:31:06.243Z,23.05
2023-03-27T18:33:33.488Z,24.20
2023-03-27T18:36:00.892Z,22.23
2023-03-27T18:38:28.884Z,21.23
2023-03-27T18:40:56.942Z,19.60
2023-03-27T18:43:24.945Z,18.92
2023-03-27T18:45:56.147Z,18.73
2023-03-27T18:48:23.700Z,18.10
2023-03-27T18:50:57.648Z,17.60
2023-03-27T18:53:24.836Z,15.63
2023-03-27T18:55:52.817Z,15.13
2023-03-27T18:58:20.736Z,15.48
2023-03-27T19:00:48.068Z,12.85
2023-03-27T19:03:18.086Z,14.13
2023-03-27T19:05:45.919Z,13.95
2023-03-27T19:08:13.285Z,11.55
2023-03-27T19:10:40.688Z,12.23
2023-03-27T19:13:08.291Z,12.18
2023-03-27T19:15:35.708Z,13.02
2023-03-27T19:18:03.204Z,11.45
2023-03-27T19:20:30.723Z,11.05
2023-03-27T19:22:57.915Z,11.45
2023-03-27T19:25:25.113Z,10.38
2023-03-27T19:27:52.373Z,11.60
2023-03-27T19:30:19.612Z,10.57
2023-03-27T19:32:46.851Z,9.68
2023-03-27T19:35:14.091Z,9.65
2023-03-27T19:37:41.714Z,9.15
2023-03-27T19:40:10.085Z,8.27
2023-03-27T19:42:37.297Z,7.95
2023-03-27T19:45:04.832Z,8.20
2023-03-27T19:47:32.178Z,8.05
2023-03-27T19:49:59.383Z,7.70
2023-03-27T19:52:29.329Z,6.45
2023-03-27T19:54:56.590Z,7.78
2023-03-27T19:57:23.941Z,6.32
2023-03-27T19:59:51.327Z,7.18
2023-03-27T20:02:18.805Z,7.15
2023-03-27T20:04:46.257Z,8.20
2023-03-27T20:07:13.604Z,8.52
2023-03-27T20:09:41.100Z,7.15
2023-03-27T20:12:11.271Z,7.25
2023-03-27T20:14:38.494Z,8.45
2023-03-27T20:17:12.314Z,8.50
2023-03-27T20:19:48.949Z,8.95
2023-03-27T20:22:20.695Z,7.50
2023-03-27T20:24:48.597Z,10.57
2023-03-27T20:27:19.616Z,9.27
2023-03-27T20:29:47.409Z,8.60
2023-03-27T20:32:14.899Z,10.07
2023-03-27T20:34:42.261Z,8.75
2023-03-27T20:37:12.420Z,9.27
2023-03-27T20:39:44.505Z,9.50
2023-03-27T20:42:15.051Z,9.68
2023-03-27T20:44:43.763Z,7.85
2023-03-27T20:47:12.311Z,8.18
2023-03-27T20:49:42.796Z,7.70
2023-03-27T20:52:10.846Z,7.18
2023-03-27T20:54:38.109Z,7.15
2023-03-27T20:57:05.896Z,6.80
2023-03-27T20:59:33.075Z,7.10
2023-03-27T21:02:00.515Z,6.70
2023-03-27T21:04:28.647Z,6.20
2023-03-27T21:06:56.002Z,6.45
2023-03-27T21:09:23.620Z,6.50
2023-03-27T21:11:51.058Z,7.00
2023-03-27T21:14:18.238Z,6.38
2023-03-27T21:16:45.460Z,5.47
2023-03-27T21:19:12.775Z,5.95
2023-03-27T21:21:40.060Z,5.30
2023-03-27T21:24:07.380Z,5.05
2023-03-27T21:26:34.833Z,5.10
2023-03-27T21:29:03.177Z,5.97
2023-03-27T21:31:30.563Z,6.13
2023-03-27T21:33:57.820Z,4.68
2023-03-27T21:36:27.996Z,5.20
2023-03-27T21:38:56.808Z,4.20
2023-03-27T21:41:24.224Z,4.57
2023-03-27T21:43:51.553Z,4.93
2023-03-27T21:46:18.818Z,4.55
2023-03-27T21:48:50.214Z,4.38
2023-03-27T21:51:17.554Z,4.38
2023-03-27T21:53:45.930Z,4.93
2023-03-27T21:56:13.423Z,4.30
2023-03-27T21:58:40.949Z,4.38
2023-03-27T22:01:08.270Z,4.30
2023-03-27T22:03:35.683Z,3.92
2023-03-27T22:06:12.623Z,4.05
2023-03-27T22:08:40.948Z,4.65
2023-03-27T22:11:08.132Z,4.68
2023-03-27T22:13:36.666Z,4.05
2023-03-27T22:16:12.139Z,4.25
2023-03-27T22:18:39.718Z,4.10
2023-03-27T22:21:13.346Z,4.43
2023-03-27T22:23:40.714Z,3.78
2023-03-27T22:26:07.986Z,4.10
2023-03-27T22:28:37.680Z,3.78
2023-03-27T22:31:05.036Z,3.47
2023-03-27T22:33:32.230Z,4.43
2023-03-27T22:35:59.696Z,3.50
2023-03-27T22:38:29.838Z,3.40
2023-03-27T22:40:57.349Z,3.50
2023-03-27T22:43:24.790Z,3.55
2023-03-27T22:45:52.433Z,3.53
2023-03-27T22:48:19.692Z,2.85
2023-03-27T22:50:54.212Z,3.22
2023-03-27T22:53:22.098Z,3.00
2023-03-27T22:55:54.136Z,2.90
2023-03-27T22:58:21.616Z,3.65
2023-03-27T23:00:49.833Z,3.92
2023-03-27T23:03:17.451Z,3.05
2023-03-27T23:05:46.869Z,3.13
2023-03-27T23:08:14.046Z,3.30
2023-03-27T23:10:41.262Z,3.50
2023-03-27T23:13:09.640Z,2.70
2023-03-27T23:15:37.310Z,2.83
2023-03-27T23:18:05.015Z,3.17
2023-03-27T23:20:32.366Z,3.20
2023-03-27T23:22:59.576Z,2.72
2023-03-27T23:25:26.775Z,2.95
2023-03-27T23:27:53.926Z,2.72
2023-03-27T23:30:21.449Z,3.30
2023-03-27T23:32:48.645Z,2.80
2023-03-27T23:35:16.871Z,3.22
2023-03-27T23:37:44.038Z,2.35
2023-03-27T23:40:11.202Z,2.85
2023-03-27T23:42:38.394Z,2.72
2023-03-27T23:45:05.766Z,2.95
2023-03-27T23:47:32.995Z,3.08
2023-03-27T23:50:00.353Z,2.45
2023-03-27T23:52:27.491Z,2.50
2023-03-27T23:54:54.664Z,2.75
2023-03-27T23:57:21.950Z,2.88
2023-03-27T23:59:49.152Z,3.00
